Ana Sayfa
METAR-TAF:

METAR-TAF

Havaalanları :

Clines Corners, New Mexico, Amerika Birleşik Devletleri

Enlem: 35-00N, Boylam: 105-40W, yükseklik: 2160 m

Güncel hava durumu gözlemi

Rapor saat 04:17 UTC de 37 dakika önce yapıldı.
Rüzgar batıdan 24 kt ve 29 kt'a kadar ani rüzgarlar
Sıcaklık 1°C
Nem 86%
Basınç 1015 hPa
Görüş mesafesi: 2.4 km
200 ft yükseklikte çok bulutlu
Pus

METAR: KCQC 220417Z AUTO 27024G29KT 1 1/2SM BR OVC002 01/M01 A2997 RMK AO2 PK WND 27032/0359 T00061006

Saat: 21:54 (04:54 UTC)


TAF: eksik

4.000'den fazla havaalanı için hava durumu gözlemleri ve tahminleri (METAR ve TAF raporları).

Kullanılabilir istasyonlar harita üzerinde sarı ve kırmızı noktalarla gösterilir.

İstasyonun adını görmek için fareyi noktanın üzerinde gezdirin.

Sonrasında hava gözlem ve tahminlerini görmek için tıklayın.

Haritayı değiştirmek için: yaklaştırmak için siyah artı işaretli yeşil düğmeye ve uzaklaştırmak için de eksi işaretli düğmeye hızla tıklayın; bitişik haritalar için yeşil okları kullanın.


METAR-TAF: